Time,TemperatureF,DewpointF,PressureIn,WindDirection,WindDirectionDegrees,WindSpeedMPH,WindSpeedGustMPH,Humidity,HourlyPrecipIn,Conditions,Clouds,dailyrainin,SoftwareType,DateUTC
2013-03-13 00:01:00,64.0,38.0,30.02,NW,315,0.0,0.0,38,0.00,,,0.00,,2013-03-13 07:01:00,
2013-03-13 00:11:00,64.0,38.0,30.02,NW,315,0.0,0.0,38,0.00,,,0.00,,2013-03-13 07:11:00,
2013-03-13 00:21:00,64.0,39.0,30.02,NW,315,0.0,0.0,39,0.00,,,0.00,,2013-03-13 07:21:00,
2013-03-13 00:31:00,64.0,38.0,30.02,NW,315,0.0,0.0,38,0.00,,,0.00,,2013-03-13 07:31:00,
2013-03-13 00:41:00,64.0,38.0,30.02,NW,315,0.0,0.0,38,0.00,,,0.00,,2013-03-13 07:41:00,
2013-03-13 00:52:00,63.0,37.0,30.02,NW,315,0.0,0.0,38,0.00,,,0.00,,2013-03-13 07:52:00,
2013-03-13 01:11:00,63.0,37.0,30.02,NW,315,0.0,0.0,38,0.00,,,0.00,,2013-03-13 08:11:00,
2013-03-13 01:21:00,63.0,37.0,30.02,NW,315,0.0,0.0,38,0.00,,,0.00,,2013-03-13 08:21:00,
2013-03-13 01:31:00,63.0,38.0,30.03,NW,315,0.0,0.0,40,0.00,,,0.00,,2013-03-13 08:31:00,
2013-03-13 01:42:00,63.0,38.0,30.03,NW,315,0.0,0.0,40,0.00,,,0.00,,2013-03-13 08:42:00,
2013-03-13 01:53:00,62.0,37.0,30.02,NW,315,0.0,0.0,40,0.00,,,0.00,,2013-03-13 08:53:00,
2013-03-13 02:01:00,62.0,38.0,30.03,NW,315,0.0,0.0,41,0.00,,,0.00,,2013-03-13 09:01:00,
2013-03-13 02:11:00,62.0,38.0,30.03,NW,315,0.0,0.0,41,0.00,,,0.00,,2013-03-13 09:11:00,
2013-03-13 02:22:00,62.0,37.0,30.02,NW,315,1.0,1.0,40,0.00,,,0.00,,2013-03-13 09:22:00,
2013-03-13 02:31:00,60.0,36.0,30.02,NW,315,1.0,2.0,40,0.00,,,0.00,,2013-03-13 09:31:00,
2013-03-13 02:41:00,60.0,36.0,30.02,NW,315,1.0,2.0,40,0.00,,,0.00,,2013-03-13 09:41:00,
2013-03-13 02:52:00,60.0,36.0,30.03,NW,315,1.0,2.0,41,0.00,,,0.00,,2013-03-13 09:52:00,
2013-03-13 03:01:00,60.0,35.0,30.01,NW,315,0.0,2.0,39,0.00,,,0.00,,2013-03-13 10:01:00,
2013-03-13 03:11:00,60.0,35.0,30.01,NW,315,0.0,2.0,39,0.00,,,0.00,,2013-03-13 10:11:00,
2013-03-13 03:22:00,60.0,36.0,30.02,NW,315,1.0,2.0,40,0.00,,,0.00,,2013-03-13 10:22:00,
2013-03-13 03:31:00,60.0,37.0,30.01,NW,315,1.0,2.0,43,0.00,,,0.00,,2013-03-13 10:31:00,
2013-03-13 03:42:00,60.0,37.0,30.01,NW,315,1.0,2.0,43,0.00,,,0.00,,2013-03-13 10:42:00,
2013-03-13 03:52:00,60.0,36.0,30.01,NW,315,0.0,0.0,40,0.00,,,0.00,,2013-03-13 10:52:00,
2013-03-13 04:01:00,60.0,36.0,30.01,NW,315,0.0,0.0,40,0.00,,,0.00,,2013-03-13 11:01:00,
2013-03-13 04:11:00,60.0,36.0,30.01,NW,315,0.0,0.0,40,0.00,,,0.00,,2013-03-13 11:11:00,
2013-03-13 04:21:00,59.0,35.0,30.01,NW,315,0.0,0.0,41,0.00,,,0.00,,2013-03-13 11:21:00,
2013-03-13 04:31:00,59.0,35.0,30.01,NW,315,0.0,0.0,41,0.00,,,0.00,,2013-03-13 11:31:00,
2013-03-13 04:41:00,59.0,35.0,30.01,NW,315,0.0,0.0,41,0.00,,,0.00,,2013-03-13 11:41:00,
2013-03-13 04:52:00,59.0,35.0,30.01,NW,315,0.0,0.0,41,0.00,,,0.00,,2013-03-13 11:52:00,
2013-03-13 05:01:00,58.0,36.0,30.02,NW,315,0.0,0.0,43,0.00,,,0.00,,2013-03-13 12:01:00,
2013-03-13 05:11:00,58.0,36.0,30.02,NW,315,0.0,0.0,43,0.00,,,0.00,,2013-03-13 12:11:00,
2013-03-13 05:22:00,58.0,36.0,30.02,NW,315,0.0,0.0,43,0.00,,,0.00,,2013-03-13 12:22:00,
2013-03-13 05:32:00,58.0,35.0,30.03,NW,315,0.0,1.0,42,0.00,,,0.00,,2013-03-13 12:32:00,
2013-03-13 05:41:00,58.0,35.0,30.03,NW,315,0.0,1.0,42,0.00,,,0.00,,2013-03-13 12:41:00,
2013-03-13 05:52:00,58.0,36.0,30.03,NW,315,0.0,0.0,44,0.00,,,0.00,,2013-03-13 12:52:00,
2013-03-13 06:01:00,57.0,36.0,30.03,NW,315,0.0,0.0,45,0.00,,,0.00,,2013-03-13 13:01:00,
2013-03-13 06:11:00,57.0,36.0,30.03,NW,315,0.0,0.0,45,0.00,,,0.00,,2013-03-13 13:11:00,
2013-03-13 06:21:00,57.0,36.0,30.03,NW,315,0.0,0.0,46,0.00,,,0.00,,2013-03-13 13:21:00,
2013-03-13 06:32:00,57.0,36.0,30.05,NW,315,0.0,0.0,46,0.00,,,0.00,,2013-03-13 13:32:00,
2013-03-13 06:41:00,57.0,36.0,30.05,NW,315,0.0,0.0,46,0.00,,,0.00,,2013-03-13 13:41:00,
2013-03-13 06:52:00,57.0,37.0,30.05,NW,315,0.0,0.0,47,0.00,,,0.00,,2013-03-13 13:52:00,
2013-03-13 07:01:00,57.0,37.0,30.06,NW,315,0.0,0.0,47,0.00,,,0.00,,2013-03-13 14:01:00,
2013-03-13 07:11:00,57.0,37.0,30.06,NW,315,0.0,0.0,47,0.00,,,0.00,,2013-03-13 14:11:00,
2013-03-13 07:21:00,56.0,36.0,30.06,NW,315,0.0,0.0,47,0.00,,,0.00,,2013-03-13 14:21:00,
2013-03-13 07:32:00,56.0,37.0,30.06,NW,315,0.0,0.0,48,0.00,,,0.00,,2013-03-13 14:32:00,
2013-03-13 07:41:00,56.0,37.0,30.06,NW,315,0.0,0.0,48,0.00,,,0.00,,2013-03-13 14:41:00,
2013-03-13 07:52:00,58.0,39.0,30.06,NW,315,1.0,2.0,49,0.00,,,0.00,,2013-03-13 14:52:00,
2013-03-13 08:01:00,61.0,39.0,30.07,NW,315,0.0,1.0,44,0.00,,,0.00,,2013-03-13 15:01:00,
2013-03-13 08:11:00,61.0,39.0,30.07,NW,315,0.0,1.0,44,0.00,,,0.00,,2013-03-13 15:11:00,
2013-03-13 08:21:00,64.0,40.0,30.09,NW,315,3.0,3.0,41,0.00,,,0.00,,2013-03-13 15:21:00,
2013-03-13 08:31:00,66.0,40.0,30.09,NW,315,1.0,3.0,38,0.00,,,0.00,,2013-03-13 15:31:00,
2013-03-13 08:42:00,66.0,40.0,30.09,NW,315,1.0,3.0,38,0.00,,,0.00,,2013-03-13 15:42:00,
2013-03-13 08:52:00,66.0,39.0,30.09,NW,315,1.0,2.0,37,0.00,,,0.00,,2013-03-13 15:52:00,
2013-03-13 09:02:00,70.0,39.0,30.09,NW,315,2.0,3.0,32,0.00,,,0.00,,2013-03-13 16:02:00,
2013-03-13 09:21:00,72.0,40.0,30.09,NW,315,1.0,2.0,31,0.00,,,0.00,,2013-03-13 16:21:00,
2013-03-13 09:32:00,74.0,41.0,30.09,NW,315,3.0,3.0,31,0.00,,,0.00,,2013-03-13 16:32:00,
2013-03-13 09:41:00,74.0,41.0,30.09,NW,315,3.0,3.0,31,0.00,,,0.00,,2013-03-13 16:41:00,
2013-03-13 09:52:00,77.0,40.0,30.09,NNW,338,2.0,5.0,27,0.00,,,0.00,,2013-03-13 16:52:00,
2013-03-13 10:01:00,77.0,40.0,30.09,North,0,3.0,6.0,27,0.00,,,0.00,,2013-03-13 17:01:00,
2013-03-13 10:11:00,77.0,40.0,30.09,North,0,3.0,6.0,27,0.00,,,0.00,,2013-03-13 17:11:00,
2013-03-13 10:21:00,77.0,41.0,30.10,North,0,3.0,5.0,28,0.00,,,0.00,,2013-03-13 17:21:00,
2013-03-13 10:31:00,78.0,41.0,30.09,North,0,3.0,7.0,27,0.00,,,0.00,,2013-03-13 17:31:00,
2013-03-13 10:41:00,78.0,41.0,30.09,North,0,3.0,7.0,27,0.00,,,0.00,,2013-03-13 17:41:00,
2013-03-13 10:53:00,79.0,40.0,30.09,NNE,23,3.0,5.0,25,0.00,,,0.00,,2013-03-13 17:53:00,
2013-03-13 11:01:00,81.0,42.0,30.09,North,0,3.0,3.0,25,0.00,,,0.00,,2013-03-13 18:01:00,
2013-03-13 11:21:00,82.0,42.0,30.09,North,0,3.0,7.0,24,0.00,,,0.00,,2013-03-13 18:21:00,
2013-03-13 11:32:00,83.0,42.0,30.08,NNW,338,2.0,5.0,24,0.00,,,0.00,,2013-03-13 18:32:00,
2013-03-13 11:52:00,84.0,41.0,30.08,North,0,5.0,8.0,22,0.00,,,0.00,,2013-03-13 18:52:00,
2013-03-13 12:01:00,86.0,41.0,30.08,North,0,6.0,9.0,21,0.00,,,0.00,,2013-03-13 19:01:00,
2013-03-13 12:22:00,86.0,38.0,30.07,North,0,2.0,3.0,18,0.00,,,0.00,,2013-03-13 19:22:00,
2013-03-13 12:31:00,87.0,40.0,30.07,North,0,6.0,7.0,19,0.00,,,0.00,,2013-03-13 19:31:00,
2013-03-13 12:42:00,87.0,40.0,30.07,North,0,6.0,7.0,19,0.00,,,0.00,,2013-03-13 19:42:00,
2013-03-13 12:53:00,88.0,42.0,30.06,NNW,338,6.0,8.0,20,0.00,,,0.00,,2013-03-13 19:53:00,
2013-03-13 13:01:00,88.0,43.0,30.05,NNW,338,5.0,6.0,21,0.00,,,0.00,,2013-03-13 20:01:00,
2013-03-13 13:21:00,88.0,41.0,30.04,NE,45,2.0,3.0,19,0.00,,,0.00,,2013-03-13 20:21:00,
2013-03-13 13:31:00,88.0,41.0,30.04,North,0,2.0,3.0,19,0.00,,,0.00,,2013-03-13 20:31:00,
2013-03-13 13:52:00,88.0,41.0,30.03,NNE,23,2.0,3.0,19,0.00,,,0.00,,2013-03-13 20:52:00,
2013-03-13 14:01:00,88.0,41.0,30.02,NE,45,0.0,1.0,19,0.00,,,0.00,,2013-03-13 21:01:00,
2013-03-13 14:21:00,89.0,40.0,30.01,North,0,1.0,3.0,18,0.00,,,0.00,,2013-03-13 21:21:00,
2013-03-13 14:31:00,89.0,41.0,30.01,East,90,2.0,3.0,19,0.00,,,0.00,,2013-03-13 21:31:00,
2013-03-13 14:52:00,90.0,42.0,30.01,North,0,2.0,5.0,19,0.00,,,0.00,,2013-03-13 21:52:00,
2013-03-13 15:01:00,91.0,43.0,30.01,WNW,293,2.0,3.0,19,0.00,,,0.00,,2013-03-13 22:01:00,
2013-03-13 15:21:00,93.0,42.0,30.00,West,270,2.0,3.0,17,0.00,,,0.00,,2013-03-13 22:21:00,
2013-03-13 15:31:00,92.0,39.0,30.00,NW,315,1.0,2.0,16,0.00,,,0.00,,2013-03-13 22:31:00,
2013-03-13 15:42:00,92.0,39.0,30.00,NW,315,1.0,2.0,16,0.00,,,0.00,,2013-03-13 22:42:00,
2013-03-13 15:52:00,92.0,39.0,29.99,NW,315,1.0,2.0,16,0.00,,,0.00,,2013-03-13 22:52:00,
2013-03-13 16:01:00,92.0,41.0,29.99,WNW,293,5.0,5.0,17,0.00,,,0.00,,2013-03-13 23:01:00,
2013-03-13 16:21:00,92.0,39.0,29.99,West,270,0.0,1.0,16,0.00,,,0.00,,2013-03-13 23:21:00,
2013-03-13 16:31:00,91.0,40.0,29.98,West,270,1.0,1.0,17,0.00,,,0.00,,2013-03-13 23:31:00,
2013-03-13 16:52:00,91.0,40.0,29.98,West,270,3.0,3.0,17,0.00,,,0.00,,2013-03-13 23:52:00,
2013-03-13 17:01:00,90.0,39.0,29.97,NW,315,2.0,3.0,17,0.00,,,0.00,,2013-03-14 00:01:00,
2013-03-13 17:11:00,90.0,39.0,29.97,NW,315,3.0,3.0,17,0.00,,,0.00,,2013-03-14 00:11:00,
2013-03-13 17:21:00,90.0,39.0,29.97,NW,315,3.0,3.0,17,0.00,,,0.00,,2013-03-14 00:21:00,
2013-03-13 17:31:00,91.0,40.0,29.97,NW,315,3.0,5.0,17,0.00,,,0.00,,2013-03-14 00:31:00,
2013-03-13 17:52:00,90.0,39.0,29.97,NNW,338,1.0,3.0,17,0.00,,,0.00,,2013-03-14 00:52:00,
2013-03-13 18:01:00,90.0,39.0,29.97,NNW,338,0.0,1.0,17,0.00,,,0.00,,2013-03-14 01:01:00,
2013-03-13 18:21:00,89.0,38.0,29.97,NNW,338,2.0,3.0,17,0.00,,,0.00,,2013-03-14 01:21:00,
2013-03-13 18:31:00,88.0,39.0,29.97,NNW,338,0.0,1.0,18,0.00,,,0.00,,2013-03-14 01:31:00,
2013-03-13 18:41:00,88.0,39.0,29.97,NNW,338,0.0,1.0,18,0.00,,,0.00,,2013-03-14 01:41:00,
2013-03-13 18:52:00,87.0,40.0,29.98,NNW,338,1.0,2.0,19,0.00,,,0.00,,2013-03-14 01:52:00,
2013-03-13 19:01:00,85.0,39.0,29.97,NNW,338,0.0,0.0,20,0.00,,,0.00,,2013-03-14 02:01:00,
2013-03-13 19:21:00,83.0,39.0,29.97,NNW,338,1.0,1.0,21,0.00,,,0.00,,2013-03-14 02:21:00,
2013-03-13 19:31:00,82.0,41.0,29.98,NNW,338,1.0,2.0,23,0.00,,,0.00,,2013-03-14 02:31:00,
2013-03-13 19:41:00,82.0,41.0,29.98,NNW,338,1.0,2.0,23,0.00,,,0.00,,2013-03-14 02:41:00,
2013-03-13 19:52:00,82.0,41.0,29.98,NNW,338,1.0,2.0,23,0.00,,,0.00,,2013-03-14 02:52:00,
2013-03-13 20:01:00,79.0,43.0,29.99,NNW,338,0.0,0.0,28,0.00,,,0.00,,2013-03-14 03:01:00,
2013-03-13 20:21:00,78.0,45.0,29.98,NNW,338,0.0,0.0,31,0.00,,,0.00,,2013-03-14 03:21:00,
2013-03-13 20:31:00,77.0,45.0,29.99,NNW,338,1.0,2.0,32,0.00,,,0.00,,2013-03-14 03:31:00,
2013-03-13 20:41:00,77.0,45.0,29.99,NNW,338,1.0,2.0,32,0.00,,,0.00,,2013-03-14 03:41:00,
2013-03-13 20:52:00,76.0,45.0,30.00,NNW,338,1.0,2.0,33,0.00,,,0.00,,2013-03-14 03:52:00,
2013-03-13 21:01:00,75.0,45.0,30.00,NNW,338,0.0,0.0,34,0.00,,,0.00,,2013-03-14 04:01:00,
2013-03-13 21:21:00,74.0,45.0,30.00,NNW,338,0.0,0.0,35,0.00,,,0.00,,2013-03-14 04:21:00,
2013-03-13 21:32:00,73.0,44.0,30.00,NNW,338,1.0,2.0,35,0.00,,,0.00,,2013-03-14 04:32:00,
2013-03-13 21:41:00,73.0,44.0,30.00,NNW,338,1.0,2.0,35,0.00,,,0.00,,2013-03-14 04:41:00,
2013-03-13 21:52:00,72.0,43.0,30.01,NNW,338,0.0,0.0,35,0.00,,,0.00,,2013-03-14 04:52:00,
2013-03-13 22:01:00,72.0,43.0,30.01,NNW,338,0.0,0.0,35,0.00,,,0.00,,2013-03-14 05:01:00,
2013-03-13 22:11:00,72.0,43.0,30.01,NNW,338,0.0,0.0,35,0.00,,,0.00,,2013-03-14 05:11:00,
2013-03-13 22:21:00,71.0,42.0,30.02,NNW,338,0.0,1.0,35,0.00,,,0.00,,2013-03-14 05:21:00,
2013-03-13 22:32:00,71.0,43.0,30.01,NNW,338,0.0,0.0,36,0.00,,,0.00,,2013-03-14 05:32:00,
2013-03-13 22:42:00,71.0,43.0,30.01,NNW,338,0.0,0.0,36,0.00,,,0.00,,2013-03-14 05:42:00,
2013-03-13 22:52:00,70.0,41.0,30.02,NNW,338,0.0,0.0,35,0.00,,,0.00,,2013-03-14 05:52:00,
2013-03-13 23:01:00,70.0,41.0,30.02,NNW,338,0.0,0.0,35,0.00,,,0.00,,2013-03-14 06:01:00,
2013-03-13 23:11:00,70.0,41.0,30.02,NNW,338,0.0,0.0,35,0.00,,,0.00,,2013-03-14 06:11:00,
2013-03-13 23:21:00,70.0,41.0,30.02,NNW,338,0.0,0.0,35,0.00,,,0.00,,2013-03-14 06:21:00,
2013-03-13 23:31:00,69.0,41.0,30.01,NNW,338,0.0,0.0,36,0.00,,,0.00,,2013-03-14 06:31:00,
2013-03-13 23:41:00,69.0,41.0,30.01,NNW,338,0.0,0.0,36,0.00,,,0.00,,2013-03-14 06:41:00,
2013-03-13 23:52:00,69.0,41.0,30.01,NNW,338,0.0,0.0,36,0.00,,,0.00,,2013-03-14 06:52:00,